SBGRFMMT

Guest
Details From SBGR - Sao Paulo - Guarulhos
To FMMT - Toamasina
Flight Number -
Tags Generated
Created
Modified
Stats Distance 5,287 nm / 9,792 km
Max Altitude 0 ft / 0 m
Waypoints 5
Social Downloads 0
Likes 0
Share VATSIM

Download

Looking for another format? Having issues loading an existing format? Contact us
Advertisement - Login to hide

Notes

Generated

Route

SBGR PEDIL MP MT FMMT

ID Type Via Altitude Latitude Longitude Leg Dist Tot Dist Heading (true) Name
O SBGR APT - 0 ft / 0 m -23.43891˚ -46.48745˚ - 0 nm - -
PEDIL FIX - 0 ft / 0 m -25.65935˚ 26.85946˚ 3954 nm 3954 nm 109° / 74° -
MP NDB - 0 ft / 0 m -24.54139˚ 30.86944˚ 228 nm 4182 nm 74° / 72° MARIEPSKOP NDB
MT VOR - 0 ft / 0 m -18.12425˚ 49.39425˚ 1104 nm 5286 nm 73° / 66° TOAMASINA VOR
O FMMT APT - 0 ft / 0 m -18.11942˚ 49.39365˚ 0 nm 5287 nm 353° / 353° -

Altitude Profile

Advertisement - Login to hide

Weather


0- 5 10 15 20 25 30 35+ Temperature / ° C

Clouds and Precipitation
Forecast for 2018-05-21 06:00 UTC. Updated 12 minutes ago

Ground ~20,000 ft ~40,000 ft Winds

SBGR

Details ICAO SBGR (GRU)
Name Sao Paulo - Guarulhos
Region Brazil
Timezone America/Sao_Paulo (UTC-3.0)
Stats Elevation 2,459 ft / 750 m (AMSL)
Location -23.432333° -46.469675°
Runways 2
Magnetic Variation 21.465° W

METAR

SBGR 210300Z 22002KT CAVOK 09/08 Q1018

Decode

TAF

TAF SBGR 202150Z 2100/2206 30004KT CAVOK TN08/2108Z TX19/2117Z BECMG 2108/2110 10003KT BECMG 2113/2115 26005KT FEW035 BECMG 2120/2122 07003KT BECMG 2123/2201 CAVOK RMK PGL

Decode

Departure Runways

ID Width Length Bearing (true) Bearing (mag) Surface Threshold Offset Overrun Length
09L 148 ft / 45 m 12,676 ft / 3,864 m 73.61° 95.08° Asphalt 495 ft / 151 m 0 ft / 0 m
09R 148 ft / 45 m 9,950 ft / 3,033 m 73.60° 95.07° Asphalt 0 ft / 0 m 197 ft / 60 m
27L 148 ft / 45 m 9,950 ft / 3,033 m 253.59° 275.06° Asphalt 0 ft / 0 m 197 ft / 60 m
27R 148 ft / 45 m 12,676 ft / 3,864 m 253.60° 275.07° Asphalt 197 ft / 60 m 0 ft / 0 m

FMMT

Details ICAO FMMT (TMM)
Name TOAMASINA
Region Comoros, Mayotte, Réunion and Madagascar
Timezone Indian/Antananarivo (UTC+3.0)
Stats Elevation 22 ft / 7 m (AMSL)
Location -18.109517° 49.392536°
Runways 1
Magnetic Variation 14.785° W

METAR

FMMT 210300Z 23008KT 9999 VCSH FEW007 SCT017 BKN033 20/18 Q1017 TEMPO 4000 RA

Decode

TAF

TAF FMMT 202300Z 2100/2124 18012KT 9999 FEW007 SCT017 BKN033 TEMPO 2100/2122 4000 SHRA

Decode

Destination Runways

ID Width Length Bearing (true) Bearing (mag) Surface Threshold Offset Overrun Length
01 131 ft / 40 m 7,270 ft / 2,216 m 353.90° 8.68° Asphalt 0 ft / 0 m 100 ft / 30 m
19 131 ft / 40 m 7,270 ft / 2,216 m 173.90° 188.68° Asphalt 0 ft / 0 m 197 ft / 60 m

Approach Navaids

Runway Type Ident Frequency Range Bearing (true) Bearing (mag) Slope Elevation
19 Localiser TO 110.30 MHz 18 nm / 33 km 173.77° 188.55° - 22 ft / 7 m (AMSL)
19 Glidescope TO 110.30 MHz 10 nm / 19 km 173.90° 188.68° 3.00° 22 ft / 7 m (AMSL)